METAR Data
IDs: Format: Raw Decoded Include TAF

Data at: 2233 UTC 29 May 2020

METAR for:KFFL (Fairfield Muni, IA, US)
Text:KFFL 292215Z AUTO 33014G21KT 10SM SCT049 20/12 A3012 RMK A01
Temperature: 20.0°C ( 68°F)
Dewpoint: 12.0°C ( 54°F) [RH = 60%]
Pressure (altimeter):30.12 inches Hg (1020.1 mb)
Winds:from the NNW (330 degrees) at 16 MPH (14 knots; 7.2 m/s) gusting to 24 MPH (21 knots; 10.8 m/s)
Visibility:10 or more sm (16+ km)
Ceiling:at least 12,000 feet AGL
Clouds: scattered clouds at 4900 feet AGL
QC Flag:automated observation with no human augmentation